createdAt,value
2023-02-19T00:00:57.737Z,10.37
2023-02-19T00:03:24.403Z,10.33
2023-02-19T00:05:50.938Z,11.60
2023-02-19T00:08:17.440Z,11.28
2023-02-19T00:10:43.936Z,10.87
2023-02-19T00:13:10.633Z,10.43
2023-02-19T00:15:37.321Z,10.45
2023-02-19T00:18:03.892Z,10.47
2023-02-19T00:20:30.369Z,10.49
2023-02-19T00:22:56.969Z,10.70
2023-02-19T00:25:23.606Z,11.02
2023-02-19T00:27:50.093Z,11.07
2023-02-19T00:30:16.695Z,11.00
2023-02-19T00:32:43.256Z,11.09
2023-02-19T00:35:11.172Z,11.08
2023-02-19T00:37:37.665Z,10.98
2023-02-19T00:40:04.382Z,10.92
2023-02-19T00:42:31.023Z,10.89
2023-02-19T00:44:57.544Z,10.90
2023-02-19T00:47:24.034Z,10.95
2023-02-19T00:49:50.521Z,10.93
2023-02-19T00:52:17.072Z,10.98
2023-02-19T00:54:43.649Z,11.04
2023-02-19T00:57:10.363Z,11.08
2023-02-19T00:59:36.913Z,11.07
2023-02-19T01:02:03.845Z,11.02
2023-02-19T01:04:30.488Z,11.03
2023-02-19T01:06:57.135Z,11.01
2023-02-19T01:09:23.706Z,10.97
2023-02-19T01:11:50.241Z,10.96
2023-02-19T01:14:17.220Z,11.01
2023-02-19T01:16:43.770Z,10.97
2023-02-19T01:19:10.325Z,10.99
2023-02-19T01:21:36.896Z,10.99
2023-02-19T01:24:03.521Z,11.07
2023-02-19T01:26:32.075Z,10.99
2023-02-19T01:29:02.596Z,11.10
2023-02-19T01:31:29.984Z,10.98
2023-02-19T01:33:59.391Z,10.95
2023-02-19T01:36:28.193Z,10.81
2023-02-19T01:38:55.537Z,10.79
2023-02-19T01:41:24.700Z,10.76
2023-02-19T01:44:12.414Z,10.82
2023-02-19T01:46:43.177Z,10.78
2023-02-19T01:49:18.610Z,10.76
2023-02-19T01:51:50.679Z,10.66
2023-02-19T01:54:22.326Z,10.56
2023-02-19T01:56:49.916Z,10.45
2023-02-19T01:59:17.499Z,10.43
2023-02-19T02:01:44.904Z,10.41
2023-02-19T02:04:14.299Z,10.43
2023-02-19T02:06:56.352Z,10.42
2023-02-19T02:09:45.161Z,10.56
2023-02-19T02:12:12.745Z,10.24
2023-02-19T02:14:42.794Z,10.15
2023-02-19T02:17:30.083Z,10.15
2023-02-19T02:19:59.427Z,10.17
2023-02-19T02:22:30.603Z,10.13
2023-02-19T02:25:03.647Z,10.32
2023-02-19T02:27:43.590Z,10.48
2023-02-19T02:30:23.821Z,10.37
2023-02-19T02:33:15.717Z,10.15
2023-02-19T02:35:51.094Z,10.01
2023-02-19T02:38:22.605Z,9.91
2023-02-19T02:40:49.440Z,9.91
2023-02-19T02:43:16.495Z,9.85
2023-02-19T02:45:43.242Z,9.91
2023-02-19T02:48:37.311Z,9.84
2023-02-19T02:51:36.271Z,9.86
2023-02-19T02:54:27.576Z,9.84
2023-02-19T02:56:56.433Z,9.91
2023-02-19T02:59:26.257Z,9.82
2023-02-19T03:02:10.847Z,9.81
2023-02-19T03:05:14.592Z,9.81
2023-02-19T03:08:04.214Z,9.80
2023-02-19T03:11:24.228Z,9.85
2023-02-19T03:14:14.001Z,9.70
2023-02-19T03:17:01.809Z,9.72
2023-02-19T03:19:31.586Z,9.69
2023-02-19T03:22:30.023Z,9.87
2023-02-19T03:25:23.493Z,9.69
2023-02-19T03:27:52.072Z,9.69
2023-02-19T03:30:23.519Z,9.74
2023-02-19T03:32:58.044Z,9.72
2023-02-19T03:35:30.068Z,9.71
2023-02-19T03:38:02.565Z,9.70
2023-02-19T03:40:34.416Z,9.68
2023-02-19T03:43:11.890Z,9.82
2023-02-19T03:46:06.509Z,9.78
2023-02-19T03:48:41.873Z,9.83
2023-02-19T03:51:33.532Z,9.73
2023-02-19T03:54:22.818Z,9.79
2023-02-19T03:56:58.589Z,9.70
2023-02-19T03:59:59.573Z,9.80
2023-02-19T04:02:46.083Z,9.75
2023-02-19T04:05:21.272Z,9.75
2023-02-19T04:07:51.345Z,9.87
2023-02-19T04:10:23.927Z,9.73
2023-02-19T04:13:09.636Z,9.73
2023-02-19T04:15:37.793Z,9.73
2023-02-19T04:18:08.418Z,9.75
2023-02-19T04:20:40.650Z,9.71
2023-02-19T04:23:07.666Z,9.87
2023-02-19T04:25:37.089Z,9.74
2023-02-19T04:28:04.325Z,9.71
2023-02-19T04:30:31.320Z,9.84
2023-02-19T04:32:57.885Z,9.87
2023-02-19T04:35:24.374Z,9.96
2023-02-19T04:37:51.021Z,9.86
2023-02-19T04:40:17.558Z,9.87
2023-02-19T04:42:44.036Z,9.78
2023-02-19T04:45:10.519Z,9.76
2023-02-19T04:47:37.018Z,9.75
2023-02-19T04:50:04.078Z,9.86
2023-02-19T04:52:30.704Z,9.78
2023-02-19T04:54:57.245Z,9.81
2023-02-19T04:57:23.958Z,10.24
2023-02-19T04:59:50.487Z,10.42
2023-02-19T05:02:17.015Z,10.30
2023-02-19T05:04:43.574Z,10.20
2023-02-19T05:07:10.130Z,10.11
2023-02-19T05:09:36.690Z,10.33
2023-02-19T05:12:03.447Z,10.25
2023-02-19T05:14:29.939Z,10.25
2023-02-19T05:16:56.447Z,10.29
2023-02-19T05:19:23.056Z,10.23
2023-02-19T05:21:49.560Z,10.18
2023-02-19T05:24:16.101Z,10.19
2023-02-19T05:26:45.132Z,10.16
2023-02-19T05:29:11.956Z,10.11
2023-02-19T05:31:38.634Z,10.03
2023-02-19T05:34:05.254Z,10.16
2023-02-19T05:36:32.478Z,10.01
2023-02-19T05:38:59.007Z,10.01
2023-02-19T05:41:28.231Z,10.02
2023-02-19T05:43:55.950Z,9.96
2023-02-19T05:46:25.092Z,9.91
2023-02-19T05:48:53.212Z,9.96
2023-02-19T05:51:22.913Z,9.92
2023-02-19T05:53:50.036Z,9.85
2023-02-19T05:56:33.484Z,9.79
2023-02-19T05:59:03.931Z,9.74
2023-02-19T06:01:31.230Z,9.69
2023-02-19T06:03:58.156Z,9.71
2023-02-19T06:06:25.735Z,9.74
2023-02-19T06:08:52.214Z,9.73
2023-02-19T06:11:19.744Z,9.68
2023-02-19T06:13:46.432Z,9.67
2023-02-19T06:16:13.222Z,9.78
2023-02-19T06:18:41.137Z,9.86
2023-02-19T06:21:10.847Z,9.89
2023-02-19T06:23:38.372Z,9.89
2023-02-19T06:26:17.663Z,9.99
2023-02-19T06:28:45.428Z,9.90
2023-02-19T06:31:12.921Z,9.74
2023-02-19T06:33:40.719Z,9.73
2023-02-19T06:36:11.147Z,9.70
2023-02-19T06:38:37.775Z,9.79
2023-02-19T06:41:06.467Z,9.81
2023-02-19T06:43:33.922Z,9.79
2023-02-19T06:46:05.469Z,9.83
2023-02-19T06:48:33.013Z,9.83
2023-02-19T06:50:59.832Z,9.78
2023-02-19T06:53:26.549Z,9.82
2023-02-19T06:56:04.947Z,9.84
2023-02-19T06:58:32.137Z,9.83
2023-02-19T07:00:58.743Z,9.79
2023-02-19T07:03:26.404Z,9.78
2023-02-19T07:05:53.419Z,9.71
2023-02-19T07:08:20.229Z,9.71
2023-02-19T07:10:55.397Z,9.81
2023-02-19T07:13:22.329Z,9.68
2023-02-19T07:15:51.090Z,9.62
2023-02-19T07:18:19.320Z,9.69
2023-02-19T07:20:45.980Z,9.60
2023-02-19T07:23:12.552Z,9.50
2023-02-19T07:25:39.415Z,9.51
2023-02-19T07:28:06.316Z,9.48
2023-02-19T07:30:32.988Z,9.51
2023-02-19T07:32:59.604Z,9.61
2023-02-19T07:35:26.596Z,9.53
2023-02-19T07:37:53.310Z,9.53
2023-02-19T07:40:19.885Z,9.54
2023-02-19T07:42:46.422Z,9.56
2023-02-19T07:45:13.006Z,9.54
2023-02-19T07:47:39.635Z,9.54
2023-02-19T07:50:06.457Z,9.52
2023-02-19T07:52:34.325Z,9.52
2023-02-19T07:55:00.922Z,9.49
2023-02-19T07:57:31.242Z,9.53
2023-02-19T07:59:58.847Z,9.55
2023-02-19T08:02:44.189Z,9.52
2023-02-19T08:05:10.708Z,9.52
2023-02-19T08:07:37.481Z,9.52
2023-02-19T08:10:23.832Z,9.54
2023-02-19T08:13:18.925Z,9.67
2023-02-19T08:15:50.660Z,9.58
2023-02-19T08:18:18.784Z,9.62
2023-02-19T08:20:45.610Z,9.69
2023-02-19T08:23:12.564Z,9.68
2023-02-19T08:25:40.127Z,9.74
2023-02-19T08:28:09.265Z,9.75
2023-02-19T08:30:38.339Z,9.73
2023-02-19T08:33:06.791Z,9.74
2023-02-19T08:35:36.498Z,9.72
2023-02-19T08:38:04.680Z,9.73
2023-02-19T08:40:31.785Z,9.69
2023-02-19T08:43:15.506Z,9.84
2023-02-19T08:45:44.980Z,9.78
2023-02-19T08:48:11.952Z,9.78
2023-02-19T08:50:38.785Z,9.77
2023-02-19T08:53:06.375Z,9.80
2023-02-19T08:55:33.673Z,9.79
2023-02-19T08:58:00.410Z,9.80
2023-02-19T09:00:27.431Z,9.76
2023-02-19T09:02:53.998Z,9.72
2023-02-19T09:05:20.554Z,9.71
2023-02-19T09:07:47.109Z,9.75
2023-02-19T09:10:14.429Z,9.77
2023-02-19T09:12:41.460Z,9.77
2023-02-19T09:15:08.434Z,9.74
2023-02-19T09:17:35.263Z,9.82
2023-02-19T09:20:01.906Z,9.84
2023-02-19T09:22:28.448Z,9.83
2023-02-19T09:24:55.023Z,9.85
2023-02-19T09:27:21.530Z,9.86
2023-02-19T09:29:48.038Z,9.88
2023-02-19T09:32:14.656Z,9.88
2023-02-19T09:34:41.711Z,9.84
2023-02-19T09:37:08.692Z,9.80
2023-02-19T09:39:35.971Z,9.82
2023-02-19T09:42:11.756Z,9.74
2023-02-19T09:44:41.834Z,9.75
2023-02-19T09:47:17.165Z,9.75
2023-02-19T09:49:50.166Z,9.72
2023-02-19T09:52:32.586Z,9.83
2023-02-19T09:55:03.374Z,9.75
2023-02-19T09:57:33.233Z,9.76
2023-02-19T10:00:14.043Z,9.81
2023-02-19T10:02:40.627Z,9.82
2023-02-19T10:05:13.991Z,9.91
2023-02-19T10:07:45.322Z,9.87
2023-02-19T10:10:14.811Z,9.92
2023-02-19T10:12:46.817Z,9.95
2023-02-19T10:15:32.172Z,10.12
2023-02-19T10:17:58.976Z,9.95
2023-02-19T10:20:27.889Z,9.95
2023-02-19T10:23:04.855Z,10.04
2023-02-19T10:25:33.396Z,9.96
2023-02-19T10:28:01.078Z,9.94
2023-02-19T10:30:34.688Z,10.01
2023-02-19T10:33:13.193Z,10.06
2023-02-19T10:35:58.415Z,10.17
2023-02-19T10:38:37.519Z,10.12
2023-02-19T10:41:13.816Z,10.10
2023-02-19T10:43:45.481Z,10.08
2023-02-19T10:46:23.311Z,10.16
2023-02-19T10:48:54.141Z,10.13
2023-02-19T10:51:22.955Z,10.09
2023-02-19T10:53:52.167Z,10.13
2023-02-19T10:56:30.282Z,10.27
2023-02-19T10:59:27.648Z,10.31
2023-02-19T11:02:17.109Z,10.27
2023-02-19T11:05:04.633Z,10.29
2023-02-19T11:07:31.287Z,10.15
2023-02-19T11:09:58.965Z,10.14
2023-02-19T11:12:28.934Z,10.21
2023-02-19T11:14:55.778Z,10.23
2023-02-19T11:17:28.552Z,10.29
2023-02-19T11:19:58.429Z,10.26
2023-02-19T11:22:30.726Z,10.31
2023-02-19T11:25:07.673Z,10.34
2023-02-19T11:27:34.207Z,10.31
2023-02-19T11:30:22.603Z,10.43
2023-02-19T11:32:49.143Z,10.29
2023-02-19T11:35:22.652Z,10.29
2023-02-19T11:37:59.942Z,10.40
2023-02-19T11:40:55.768Z,10.48
2023-02-19T11:43:52.780Z,10.45
2023-02-19T11:46:43.487Z,10.38
2023-02-19T11:49:12.834Z,10.32
2023-02-19T11:51:52.761Z,10.36
2023-02-19T11:54:51.948Z,10.36
2023-02-19T11:57:27.265Z,10.28
2023-02-19T11:59:59.696Z,10.28
2023-02-19T12:02:57.393Z,10.40
2023-02-19T12:05:47.125Z,10.28
2023-02-19T12:08:23.590Z,10.26
2023-02-19T12:10:50.049Z,10.23
2023-02-19T12:13:25.857Z,10.18
2023-02-19T12:16:10.462Z,10.24
2023-02-19T12:19:09.107Z,10.32
2023-02-19T12:21:58.845Z,10.16
2023-02-19T12:24:37.621Z,10.12
2023-02-19T12:27:36.303Z,10.22
2023-02-19T12:30:57.839Z,10.27
2023-02-19T12:33:27.027Z,10.17
2023-02-19T12:36:02.769Z,10.19
2023-02-19T12:38:44.272Z,10.23
2023-02-19T12:41:21.740Z,10.28
2023-02-19T12:43:55.965Z,10.21
2023-02-19T12:46:29.642Z,10.19
2023-02-19T12:49:14.893Z,10.14
2023-02-19T12:51:49.959Z,10.13
2023-02-19T12:54:30.652Z,10.13
2023-02-19T12:57:05.045Z,10.03
2023-02-19T12:59:56.491Z,10.12
2023-02-19T13:02:42.112Z,9.98
2023-02-19T13:05:18.915Z,9.94
2023-02-19T13:07:57.569Z,9.95
2023-02-19T13:10:39.938Z,10.02
2023-02-19T13:13:16.731Z,9.94
2023-02-19T13:15:48.529Z,9.94
2023-02-19T13:18:18.176Z,10.23
2023-02-19T13:20:46.708Z,9.90
2023-02-19T13:23:43.859Z,9.87
2023-02-19T13:26:45.149Z,9.97
2023-02-19T13:29:52.935Z,10.00
2023-02-19T13:32:54.676Z,9.92
2023-02-19T13:35:52.017Z,9.86
2023-02-19T13:38:18.926Z,9.75
2023-02-19T13:40:57.932Z,9.79
2023-02-19T13:43:34.646Z,9.68
2023-02-19T13:46:06.308Z,9.60
2023-02-19T13:48:35.320Z,9.50
2023-02-19T13:51:18.632Z,9.59
2023-02-19T13:53:45.104Z,9.46
2023-02-19T13:56:30.061Z,9.57
2023-02-19T13:59:01.356Z,9.42
2023-02-19T14:01:56.905Z,9.60
2023-02-19T14:04:51.614Z,9.50
2023-02-19T14:07:18.097Z,9.38
2023-02-19T14:09:46.252Z,9.36
2023-02-19T14:12:15.505Z,9.29
2023-02-19T14:14:43.615Z,9.25
2023-02-19T14:17:10.105Z,9.21
2023-02-19T14:19:42.836Z,9.21
2023-02-19T14:22:50.074Z,9.29
2023-02-19T14:25:27.821Z,9.16
2023-02-19T14:28:00.497Z,9.08
2023-02-19T14:30:28.111Z,9.07
2023-02-19T14:33:09.740Z,9.05
2023-02-19T14:35:46.111Z,9.08
2023-02-19T14:38:27.166Z,9.26
2023-02-19T14:40:55.354Z,9.29
2023-02-19T14:43:25.119Z,9.27
2023-02-19T14:45:56.489Z,9.20
2023-02-19T14:48:31.093Z,9.25
2023-02-19T14:51:04.151Z,9.31
2023-02-19T14:53:32.700Z,9.28
2023-02-19T14:56:00.112Z,9.24
2023-02-19T14:58:31.895Z,9.25
2023-02-19T15:00:58.586Z,9.26
2023-02-19T15:03:36.658Z,9.21
2023-02-19T15:06:12.871Z,9.25
2023-02-19T15:08:46.043Z,9.25
2023-02-19T15:11:19.034Z,9.26
2023-02-19T15:13:55.735Z,9.29
2023-02-19T15:16:25.914Z,9.31
2023-02-19T15:18:54.769Z,9.21
2023-02-19T15:21:27.068Z,9.23
2023-02-19T15:23:56.298Z,9.19
2023-02-19T15:26:31.702Z,9.20
2023-02-19T15:29:04.730Z,9.26
2023-02-19T15:31:31.352Z,9.24
2023-02-19T15:33:58.017Z,9.22
2023-02-19T15:36:29.258Z,9.20
2023-02-19T15:38:59.250Z,9.22
2023-02-19T15:41:29.891Z,9.03
2023-02-19T15:44:06.797Z,9.16
2023-02-19T15:46:35.678Z,9.14
2023-02-19T15:49:13.044Z,9.18
2023-02-19T15:51:55.322Z,9.28
2023-02-19T15:54:33.946Z,9.21
2023-02-19T15:57:07.059Z,9.10
2023-02-19T15:59:46.856Z,9.15
2023-02-19T16:02:15.518Z,9.15
2023-02-19T16:04:44.335Z,9.14
2023-02-19T16:07:25.552Z,9.17
2023-02-19T16:10:24.277Z,9.16
2023-02-19T16:13:01.801Z,9.10
2023-02-19T16:15:30.662Z,9.02
2023-02-19T16:17:58.831Z,9.02
2023-02-19T16:20:31.924Z,9.04
2023-02-19T16:23:24.018Z,9.27
2023-02-19T16:25:58.750Z,9.23
2023-02-19T16:28:28.411Z,9.19
2023-02-19T16:31:09.464Z,9.13
2023-02-19T16:33:38.679Z,9.17
2023-02-19T16:36:28.699Z,9.27
2023-02-19T16:39:15.566Z,9.25
2023-02-19T16:42:12.416Z,9.28
2023-02-19T16:44:38.981Z,9.02
2023-02-19T16:47:13.615Z,8.94
2023-02-19T16:49:42.414Z,8.87
2023-02-19T16:52:14.185Z,8.88
2023-02-19T16:54:40.828Z,8.88
2023-02-19T16:57:07.360Z,8.83
2023-02-19T16:59:33.936Z,8.82
2023-02-19T17:02:02.760Z,8.81
2023-02-19T17:04:29.965Z,8.82
2023-02-19T17:06:56.703Z,8.81
2023-02-19T17:09:23.249Z,8.82
2023-02-19T17:11:49.877Z,8.84
2023-02-19T17:14:16.434Z,8.80
2023-02-19T17:16:43.446Z,8.79
2023-02-19T17:19:14.114Z,8.75
2023-02-19T17:21:40.965Z,8.76
2023-02-19T17:24:07.904Z,8.73
2023-02-19T17:26:34.482Z,8.69
2023-02-19T17:29:04.427Z,8.72
2023-02-19T17:31:31.317Z,8.71
2023-02-19T17:33:58.942Z,8.71
2023-02-19T17:36:30.288Z,8.63
2023-02-19T17:39:01.538Z,8.61
2023-02-19T17:41:28.694Z,8.58
2023-02-19T17:43:55.364Z,8.56
2023-02-19T17:46:24.775Z,8.47
2023-02-19T17:48:51.680Z,8.41
2023-02-19T17:51:18.368Z,8.45
2023-02-19T17:53:46.496Z,8.51
2023-02-19T17:56:25.640Z,8.54
2023-02-19T17:58:53.129Z,8.41
2023-02-19T18:01:19.765Z,8.44
2023-02-19T18:03:46.539Z,8.42
2023-02-19T18:06:13.174Z,8.36
2023-02-19T18:08:40.017Z,8.33
2023-02-19T18:11:07.237Z,8.26
2023-02-19T18:13:33.744Z,8.25
2023-02-19T18:16:00.315Z,8.20
2023-02-19T18:18:26.882Z,8.12
2023-02-19T18:20:53.428Z,8.20
2023-02-19T18:23:20.665Z,8.11
2023-02-19T18:25:47.369Z,8.21
2023-02-19T18:28:14.912Z,8.17
2023-02-19T18:30:41.479Z,8.13
2023-02-19T18:33:10.752Z,8.04
2023-02-19T18:35:37.994Z,8.09
2023-02-19T18:38:05.699Z,7.99
2023-02-19T18:40:32.303Z,7.98
2023-02-19T18:42:58.996Z,7.97
2023-02-19T18:45:25.854Z,7.90
2023-02-19T18:47:52.356Z,7.92
2023-02-19T18:50:19.515Z,7.85
2023-02-19T18:52:46.406Z,7.83
2023-02-19T18:55:13.175Z,7.82
2023-02-19T18:57:39.714Z,7.81
2023-02-19T19:00:07.454Z,7.82
2023-02-19T19:02:48.289Z,7.86
2023-02-19T19:05:18.514Z,7.77
2023-02-19T19:07:45.024Z,7.73
2023-02-19T19:10:11.613Z,7.75
2023-02-19T19:12:38.139Z,7.65
2023-02-19T19:15:05.481Z,7.68
2023-02-19T19:17:31.952Z,7.68
2023-02-19T19:19:58.524Z,7.70
2023-02-19T19:22:26.624Z,7.71
2023-02-19T19:24:53.220Z,7.77
2023-02-19T19:27:20.547Z,7.63
2023-02-19T19:29:47.839Z,7.71
2023-02-19T19:32:14.528Z,7.63
2023-02-19T19:34:42.689Z,7.60
2023-02-19T19:37:09.895Z,7.55
2023-02-19T19:39:37.079Z,7.53
2023-02-19T19:42:03.835Z,7.56
2023-02-19T19:44:30.333Z,7.62
2023-02-19T19:46:56.897Z,7.70
2023-02-19T19:49:23.489Z,7.74
2023-02-19T19:51:50.271Z,7.65
2023-02-19T19:54:16.837Z,7.48
2023-02-19T19:56:46.167Z,7.49
2023-02-19T19:59:15.180Z,7.50
2023-02-19T20:01:52.890Z,7.58
2023-02-19T20:04:21.124Z,7.44
2023-02-19T20:06:48.181Z,7.41
2023-02-19T20:09:15.952Z,7.45
2023-02-19T20:11:47.044Z,7.57
2023-02-19T20:14:14.489Z,7.50
2023-02-19T20:16:42.661Z,7.56
2023-02-19T20:19:10.505Z,7.51
2023-02-19T20:21:37.024Z,7.65
2023-02-19T20:24:03.680Z,7.65
2023-02-19T20:26:30.665Z,7.71
2023-02-19T20:28:58.046Z,7.74
2023-02-19T20:31:25.434Z,7.72
2023-02-19T20:33:52.326Z,7.65
2023-02-19T20:36:20.123Z,7.62
2023-02-19T20:38:48.898Z,7.64
2023-02-19T20:41:15.466Z,7.64
2023-02-19T20:43:42.029Z,7.65
2023-02-19T20:46:08.650Z,7.62
2023-02-19T20:48:35.223Z,7.60
2023-02-19T20:51:01.948Z,7.45
2023-02-19T20:53:29.486Z,7.40
2023-02-19T20:55:56.353Z,7.49
2023-02-19T20:58:23.650Z,7.50
2023-02-19T21:00:53.467Z,7.46
2023-02-19T21:03:20.713Z,7.53
2023-02-19T21:05:47.326Z,7.39
2023-02-19T21:08:14.955Z,7.41
2023-02-19T21:10:41.522Z,7.44
2023-02-19T21:13:08.080Z,7.43
2023-02-19T21:15:34.666Z,7.43
2023-02-19T21:18:01.269Z,7.33
2023-02-19T21:20:27.811Z,7.35
2023-02-19T21:22:54.351Z,7.17
2023-02-19T21:25:20.921Z,7.33
2023-02-19T21:27:47.422Z,7.29
2023-02-19T21:30:14.075Z,7.34
2023-02-19T21:32:40.643Z,7.35
2023-02-19T21:35:07.570Z,7.33
2023-02-19T21:37:34.109Z,7.28
2023-02-19T21:40:00.685Z,7.35
2023-02-19T21:42:27.409Z,7.18
2023-02-19T21:44:53.999Z,7.15
2023-02-19T21:47:20.520Z,7.25
2023-02-19T21:49:47.073Z,7.18
2023-02-19T21:52:13.593Z,7.20
2023-02-19T21:54:40.183Z,7.16
2023-02-19T21:57:06.942Z,7.18
2023-02-19T21:59:33.506Z,7.21
2023-02-19T22:02:00.049Z,7.13
2023-02-19T22:04:27.324Z,7.16
2023-02-19T22:06:56.899Z,7.10
2023-02-19T22:09:23.712Z,7.09
2023-02-19T22:11:50.321Z,7.08
2023-02-19T22:14:17.082Z,6.93
2023-02-19T22:16:43.754Z,7.03
2023-02-19T22:19:11.923Z,7.11
2023-02-19T22:21:43.588Z,7.09
2023-02-19T22:24:16.477Z,7.08
2023-02-19T22:26:43.515Z,7.04
2023-02-19T22:29:11.489Z,7.08
2023-02-19T22:31:38.155Z,7.06
2023-02-19T22:34:04.869Z,7.01
2023-02-19T22:36:33.189Z,7.06
2023-02-19T22:39:00.707Z,7.03
2023-02-19T22:41:27.248Z,7.01
2023-02-19T22:43:58.440Z,7.00
2023-02-19T22:46:28.036Z,7.03
2023-02-19T22:48:54.656Z,7.02
2023-02-19T22:51:23.053Z,6.96
2023-02-19T22:53:53.823Z,7.00
2023-02-19T22:56:22.478Z,6.88
2023-02-19T22:58:49.248Z,6.86
2023-02-19T23:01:16.012Z,6.91
2023-02-19T23:03:51.326Z,6.90
2023-02-19T23:06:27.066Z,6.87
2023-02-19T23:08:55.111Z,6.81
2023-02-19T23:11:24.217Z,6.88
2023-02-19T23:13:50.866Z,6.80
2023-02-19T23:16:18.060Z,6.79
2023-02-19T23:18:44.718Z,6.78
2023-02-19T23:21:11.710Z,6.80
2023-02-19T23:23:42.239Z,6.82
2023-02-19T23:26:09.602Z,6.80
2023-02-19T23:28:36.227Z,6.86
2023-02-19T23:31:02.789Z,6.86
2023-02-19T23:33:29.312Z,6.81
2023-02-19T23:35:55.862Z,6.85
2023-02-19T23:38:22.432Z,6.84
2023-02-19T23:40:48.953Z,6.78
2023-02-19T23:43:15.483Z,6.82
2023-02-19T23:45:42.089Z,6.89
2023-02-19T23:48:08.643Z,6.77
2023-02-19T23:50:35.153Z,6.87
2023-02-19T23:53:01.774Z,6.82
2023-02-19T23:55:28.362Z,6.94
2023-02-19T23:57:54.868Z,6.94
